sensor_id;sensor_type;location;lat;lon;timestamp;pressure;altitude;pressure_sealevel;temperature;humidity
43155;BME280;34212;51.018;13.586;2023-11-19T00:01:13;97815.41;;;7.18;86.59
43155;BME280;34212;51.018;13.586;2023-11-19T00:06:15;97786.03;;;7.12;86.71
43155;BME280;34212;51.018;13.586;2023-11-19T00:11:18;97777.72;;;7.07;86.61
43155;BME280;34212;51.018;13.586;2023-11-19T00:16:19;97758.97;;;7.00;86.47
43155;BME280;34212;51.018;13.586;2023-11-19T00:36:07;97733.84;;;6.78;85.92
43155;BME280;34212;51.018;13.586;2023-11-19T00:41:09;97739.81;;;6.80;86.45
43155;BME280;34212;51.018;13.586;2023-11-19T00:46:11;97719.44;;;6.81;85.99
43155;BME280;34212;51.018;13.586;2023-11-19T00:51:14;97709.50;;;6.83;86.61
43155;BME280;34212;51.018;13.586;2023-11-19T00:56:16;97720.94;;;6.83;86.92
43155;BME280;34212;51.018;13.586;2023-11-19T01:01:18;97709.66;;;6.81;86.61
43155;BME280;34212;51.018;13.586;2023-11-19T01:06:30;97686.31;;;6.85;86.30
43155;BME280;34212;51.018;13.586;2023-11-19T01:11:32;97669.41;;;6.78;86.54
43155;BME280;34212;51.018;13.586;2023-11-19T01:16:33;97645.53;;;6.78;87.21
43155;BME280;34212;51.018;13.586;2023-11-19T01:21:35;97640.94;;;6.88;87.37
43155;BME280;34212;51.018;13.586;2023-11-19T01:26:36;97634.50;;;6.99;87.40
43155;BME280;34212;51.018;13.586;2023-11-19T01:31:38;97617.13;;;7.04;87.63
43155;BME280;34212;51.018;13.586;2023-11-19T01:36:39;97624.59;;;7.09;87.27
43155;BME280;34212;51.018;13.586;2023-11-19T01:41:41;97617.81;;;7.14;87.57
43155;BME280;34212;51.018;13.586;2023-11-19T01:46:44;97595.78;;;7.22;87.50
43155;BME280;34212;51.018;13.586;2023-11-19T01:51:49;97588.16;;;7.27;87.59
43155;BME280;34212;51.018;13.586;2023-11-19T01:56:52;97566.59;;;7.30;87.41
43155;BME280;34212;51.018;13.586;2023-11-19T02:01:55;97529.13;;;7.33;87.90
43155;BME280;34212;51.018;13.586;2023-11-19T02:07:02;97540.44;;;7.35;87.89
43155;BME280;34212;51.018;13.586;2023-11-19T02:12:03;97525.16;;;7.37;87.65
43155;BME280;34212;51.018;13.586;2023-11-19T02:17:06;97516.22;;;7.38;87.94
43155;BME280;34212;51.018;13.586;2023-11-19T02:22:07;97474.41;;;7.40;87.76
43155;BME280;34212;51.018;13.586;2023-11-19T02:27:16;97462.97;;;7.40;87.41
43155;BME280;34212;51.018;13.586;2023-11-19T02:32:20;97454.53;;;7.36;87.00
43155;BME280;34212;51.018;13.586;2023-11-19T02:37:22;97447.72;;;7.34;86.94
43155;BME280;34212;51.018;13.586;2023-11-19T02:42:24;97442.59;;;7.32;87.53
43155;BME280;34212;51.018;13.586;2023-11-19T02:47:25;97420.38;;;7.33;87.98
43155;BME280;34212;51.018;13.586;2023-11-19T02:52:27;97431.31;;;7.38;87.78
43155;BME280;34212;51.018;13.586;2023-11-19T02:57:32;97407.09;;;7.42;88.05
43155;BME280;34212;51.018;13.586;2023-11-19T03:02:35;97392.84;;;7.43;88.23
43155;BME280;34212;51.018;13.586;2023-11-19T03:07:45;97383.38;;;7.48;88.09
43155;BME280;34212;51.018;13.586;2023-11-19T03:12:47;97374.25;;;7.51;88.32
43155;BME280;34212;51.018;13.586;2023-11-19T03:17:48;97359.63;;;7.55;87.92
43155;BME280;34212;51.018;13.586;2023-11-19T03:22:50;97366.25;;;7.59;88.03
43155;BME280;34212;51.018;13.586;2023-11-19T03:27:53;97346.03;;;7.58;88.82
43155;BME280;34212;51.018;13.586;2023-11-19T03:32:56;97346.66;;;7.60;88.20
43155;BME280;34212;51.018;13.586;2023-11-19T03:37:57;97328.59;;;7.63;87.99
43155;BME280;34212;51.018;13.586;2023-11-19T03:42:59;97321.09;;;7.67;88.53
43155;BME280;34212;51.018;13.586;2023-11-19T03:48:00;97312.94;;;7.69;88.66
43155;BME280;34212;51.018;13.586;2023-11-19T03:53:02;97309.13;;;7.71;88.30
43155;BME280;34212;51.018;13.586;2023-11-19T03:58:04;97284.22;;;7.72;88.33
43155;BME280;34212;51.018;13.586;2023-11-19T04:03:06;97283.06;;;7.75;88.11
43155;BME280;34212;51.018;13.586;2023-11-19T04:08:07;97277.59;;;7.76;88.21
43155;BME280;34212;51.018;13.586;2023-11-19T04:13:09;97264.78;;;7.80;88.19
43155;BME280;34212;51.018;13.586;2023-11-19T04:18:11;97273.22;;;7.83;87.97
43155;BME280;34212;51.018;13.586;2023-11-19T04:23:12;97285.31;;;7.86;88.66
43155;BME280;34212;51.018;13.586;2023-11-19T04:28:14;97246.13;;;7.88;88.31
43155;BME280;34212;51.018;13.586;2023-11-19T04:33:17;97244.97;;;7.91;87.63
43155;BME280;34212;51.018;13.586;2023-11-19T04:38:18;97245.78;;;7.91;88.39
43155;BME280;34212;51.018;13.586;2023-11-19T04:43:20;97237.81;;;7.91;87.43
43155;BME280;34212;51.018;13.586;2023-11-19T04:48:22;97223.38;;;7.94;88.61
43155;BME280;34212;51.018;13.586;2023-11-19T04:53:24;97218.06;;;7.94;88.28
43155;BME280;34212;51.018;13.586;2023-11-19T04:58:25;97225.03;;;7.95;88.38
43155;BME280;34212;51.018;13.586;2023-11-19T05:03:27;97211.56;;;7.96;88.77
43155;BME280;34212;51.018;13.586;2023-11-19T05:08:28;97209.09;;;7.95;88.42
43155;BME280;34212;51.018;13.586;2023-11-19T05:13:30;97198.66;;;7.93;88.98
43155;BME280;34212;51.018;13.586;2023-11-19T05:18:32;97193.19;;;7.95;88.26
43155;BME280;34212;51.018;13.586;2023-11-19T05:23:34;97189.50;;;7.96;88.31
43155;BME280;34212;51.018;13.586;2023-11-19T05:28:38;97172.41;;;7.98;88.68
43155;BME280;34212;51.018;13.586;2023-11-19T05:33:40;97161.41;;;8.01;89.11
43155;BME280;34212;51.018;13.586;2023-11-19T05:38:42;97177.81;;;8.05;88.82
43155;BME280;34212;51.018;13.586;2023-11-19T05:43:44;97159.03;;;8.06;89.27
43155;BME280;34212;51.018;13.586;2023-11-19T06:29:12;97068.03;;;8.13;90.21
43155;BME280;34212;51.018;13.586;2023-11-19T06:34:19;97072.97;;;8.16;90.30
43155;BME280;34212;51.018;13.586;2023-11-19T06:39:21;97066.09;;;8.21;90.96
43155;BME280;34212;51.018;13.586;2023-11-19T06:44:22;97072.31;;;8.28;90.97
43155;BME280;34212;51.018;13.586;2023-11-19T06:49:24;97070.78;;;8.34;90.95
43155;BME280;34212;51.018;13.586;2023-11-19T06:54:26;97069.25;;;8.40;91.24
43155;BME280;34212;51.018;13.586;2023-11-19T06:59:27;97071.00;;;8.47;91.46
43155;BME280;34212;51.018;13.586;2023-11-19T07:04:30;97055.50;;;8.51;91.50
43155;BME280;34212;51.018;13.586;2023-11-19T07:09:32;97070.44;;;8.52;91.44
43155;BME280;34212;51.018;13.586;2023-11-19T07:14:35;97081.72;;;8.54;91.83
43155;BME280;34212;51.018;13.586;2023-11-19T07:19:36;97088.66;;;8.55;91.88
43155;BME280;34212;51.018;13.586;2023-11-19T07:24:39;97085.66;;;8.58;92.20
43155;BME280;34212;51.018;13.586;2023-11-19T07:29:43;97108.84;;;8.64;93.13
43155;BME280;34212;51.018;13.586;2023-11-19T07:34:45;97111.41;;;8.72;93.24
43155;BME280;34212;51.018;13.586;2023-11-19T07:39:46;97108.00;;;8.78;93.03
43155;BME280;34212;51.018;13.586;2023-11-19T07:44:48;97109.28;;;8.83;93.71
43155;BME280;34212;51.018;13.586;2023-11-19T07:49:50;97108.16;;;8.92;93.91
43155;BME280;34212;51.018;13.586;2023-11-19T07:54:52;97103.72;;;8.99;93.87
43155;BME280;34212;51.018;13.586;2023-11-19T07:59:53;97112.59;;;9.06;94.29
43155;BME280;34212;51.018;13.586;2023-11-19T08:04:55;97135.41;;;9.15;94.50
43155;BME280;34212;51.018;13.586;2023-11-19T08:09:57;97136.59;;;9.28;94.55
43155;BME280;34212;51.018;13.586;2023-11-19T08:56:42;97135.09;;;9.83;95.48
43155;BME280;34212;51.018;13.586;2023-11-19T09:44:06;97154.78;;;10.31;96.28
43155;BME280;34212;51.018;13.586;2023-11-19T09:49:10;97158.09;;;10.40;96.46
43155;BME280;34212;51.018;13.586;2023-11-19T09:54:11;97157.75;;;10.50;96.39
43155;BME280;34212;51.018;13.586;2023-11-19T09:59:14;97158.66;;;10.57;96.67
43155;BME280;34212;51.018;13.586;2023-11-19T10:04:16;97169.44;;;10.77;96.54
43155;BME280;34212;51.018;13.586;2023-11-19T10:09:18;97180.75;;;10.85;95.76
43155;BME280;34212;51.018;13.586;2023-11-19T10:14:22;97165.59;;;10.86;95.24
43155;BME280;34212;51.018;13.586;2023-11-19T10:19:24;97163.13;;;10.84;95.25
43155;BME280;34212;51.018;13.586;2023-11-19T10:24:33;97163.72;;;10.86;95.12
43155;BME280;34212;51.018;13.586;2023-11-19T10:29:37;97159.44;;;10.85;95.38
43155;BME280;34212;51.018;13.586;2023-11-19T10:34:39;97158.00;;;10.90;95.80
43155;BME280;34212;51.018;13.586;2023-11-19T10:39:54;97158.09;;;11.03;95.69
43155;BME280;34212;51.018;13.586;2023-11-19T10:44:56;97140.88;;;11.12;95.76
43155;BME280;34212;51.018;13.586;2023-11-19T10:49:57;97146.25;;;11.19;95.39
43155;BME280;34212;51.018;13.586;2023-11-19T10:55:00;97147.25;;;11.24;95.39
43155;BME280;34212;51.018;13.586;2023-11-19T11:00:03;97153.44;;;11.25;95.22
43155;BME280;34212;51.018;13.586;2023-11-19T11:05:13;97153.22;;;11.20;95.14
43155;BME280;34212;51.018;13.586;2023-11-19T11:10:16;97138.41;;;11.17;95.53
43155;BME280;34212;51.018;13.586;2023-11-19T11:15:19;97125.06;;;11.17;95.18
43155;BME280;34212;51.018;13.586;2023-11-19T11:20:22;97137.84;;;11.22;95.24
43155;BME280;34212;51.018;13.586;2023-11-19T11:25:34;97142.97;;;11.30;95.29
43155;BME280;34212;51.018;13.586;2023-11-19T11:31:02;97150.41;;;11.35;94.61
43155;BME280;34212;51.018;13.586;2023-11-19T11:36:22;97120.41;;;11.32;94.60
43155;BME280;34212;51.018;13.586;2023-11-19T11:41:24;97144.84;;;11.36;94.63
43155;BME280;34212;51.018;13.586;2023-11-19T11:57:13;97116.66;;;11.20;94.07
43155;BME280;34212;51.018;13.586;2023-11-19T12:02:21;97111.75;;;11.24;95.17
43155;BME280;34212;51.018;13.586;2023-11-19T12:07:24;97116.13;;;11.51;96.54
43155;BME280;34212;51.018;13.586;2023-11-19T12:12:27;97113.53;;;11.85;95.96
43155;BME280;34212;51.018;13.586;2023-11-19T12:22:37;97097.69;;;12.23;93.87
43155;BME280;34212;51.018;13.586;2023-11-19T12:27:41;97093.81;;;12.19;93.47
43155;BME280;34212;51.018;13.586;2023-11-19T12:32:44;97095.22;;;12.15;93.39
43155;BME280;34212;51.018;13.586;2023-11-19T12:37:48;97083.13;;;12.12;93.08
43155;BME280;34212;51.018;13.586;2023-11-19T12:42:54;97072.63;;;12.11;92.71
43155;BME280;34212;51.018;13.586;2023-11-19T12:48:06;97072.63;;;12.11;92.29
43155;BME280;34212;51.018;13.586;2023-11-19T12:53:08;97081.06;;;12.08;92.54
43155;BME280;34212;51.018;13.586;2023-11-19T12:58:10;97071.00;;;12.10;92.45
43155;BME280;34212;51.018;13.586;2023-11-19T13:03:11;97077.16;;;12.17;92.46
43155;BME280;34212;51.018;13.586;2023-11-19T13:08:13;97086.19;;;12.16;92.05
43155;BME280;34212;51.018;13.586;2023-11-19T13:13:14;97080.06;;;12.09;90.97
43155;BME280;34212;51.018;13.586;2023-11-19T13:18:16;97070.38;;;12.01;91.22
43155;BME280;34212;51.018;13.586;2023-11-19T13:23:18;97068.34;;;12.03;91.14
43155;BME280;34212;51.018;13.586;2023-11-19T13:28:21;97080.66;;;12.11;89.48
43155;BME280;34212;51.018;13.586;2023-11-19T13:33:23;97074.88;;;12.20;88.71
43155;BME280;34212;51.018;13.586;2023-11-19T13:38:25;97074.25;;;12.12;88.77
43155;BME280;34212;51.018;13.586;2023-11-19T13:43:27;97064.84;;;12.09;88.02
43155;BME280;34212;51.018;13.586;2023-11-19T13:48:32;97069.56;;;12.00;87.61
43155;BME280;34212;51.018;13.586;2023-11-19T13:53:33;97069.16;;;11.90;87.99
43155;BME280;34212;51.018;13.586;2023-11-19T13:58:38;97069.94;;;11.84;88.62
43155;BME280;34212;51.018;13.586;2023-11-19T14:03:41;97071.78;;;11.77;88.18
43155;BME280;34212;51.018;13.586;2023-11-19T14:08:43;97086.19;;;11.69;88.20
43155;BME280;34212;51.018;13.586;2023-11-19T14:13:45;97090.06;;;11.67;87.78
43155;BME280;34212;51.018;13.586;2023-11-19T14:18:47;97088.84;;;11.63;89.24
43155;BME280;34212;51.018;13.586;2023-11-19T14:23:50;97093.78;;;11.59;89.02
43155;BME280;34212;51.018;13.586;2023-11-19T14:28:52;97090.25;;;11.59;89.58
43155;BME280;34212;51.018;13.586;2023-11-19T14:33:56;97101.97;;;11.57;89.39
43155;BME280;34212;51.018;13.586;2023-11-19T14:38:58;97106.72;;;11.62;90.37
43155;BME280;34212;51.018;13.586;2023-11-19T14:44:00;97105.28;;;11.73;90.90
43155;BME280;34212;51.018;13.586;2023-11-19T14:49:02;97107.34;;;11.77;90.07
43155;BME280;34212;51.018;13.586;2023-11-19T14:54:05;97101.16;;;11.70;89.78
43155;BME280;34212;51.018;13.586;2023-11-19T14:59:07;97099.94;;;11.60;89.63
43155;BME280;34212;51.018;13.586;2023-11-19T15:04:08;97096.63;;;11.44;89.45
43155;BME280;34212;51.018;13.586;2023-11-19T15:09:10;97092.91;;;11.32;88.97
43155;BME280;34212;51.018;13.586;2023-11-19T15:14:17;97091.63;;;11.21;89.12
43155;BME280;34212;51.018;13.586;2023-11-19T15:19:20;97094.66;;;11.12;89.12
43155;BME280;34212;51.018;13.586;2023-11-19T15:24:22;97096.09;;;11.07;89.35
43155;BME280;34212;51.018;13.586;2023-11-19T15:29:23;97102.66;;;11.05;89.41
43155;BME280;34212;51.018;13.586;2023-11-19T15:34:25;97097.72;;;11.02;89.15
43155;BME280;34212;51.018;13.586;2023-11-19T15:39:27;97108.59;;;11.00;89.50
43155;BME280;34212;51.018;13.586;2023-11-19T15:44:28;97101.59;;;10.99;89.06
43155;BME280;34212;51.018;13.586;2023-11-19T15:49:30;97100.38;;;10.95;89.05
43155;BME280;34212;51.018;13.586;2023-11-19T15:54:32;97098.72;;;10.94;89.59
43155;BME280;34212;51.018;13.586;2023-11-19T15:59:34;97099.13;;;10.91;89.24
43155;BME280;34212;51.018;13.586;2023-11-19T16:04:35;97094.78;;;10.90;88.96
43155;BME280;34212;51.018;13.586;2023-11-19T16:09:37;97105.47;;;10.90;89.54
43155;BME280;34212;51.018;13.586;2023-11-19T16:14:39;97103.84;;;10.89;89.22
43155;BME280;34212;51.018;13.586;2023-11-19T16:19:41;97088.63;;;10.83;88.68
43155;BME280;34212;51.018;13.586;2023-11-19T16:24:43;97088.19;;;10.79;88.76
43155;BME280;34212;51.018;13.586;2023-11-19T16:29:45;97089.81;;;10.74;88.97
43155;BME280;34212;51.018;13.586;2023-11-19T16:34:47;97098.22;;;10.71;88.46
43155;BME280;34212;51.018;13.586;2023-11-19T16:39:49;97096.97;;;10.67;88.71
43155;BME280;34212;51.018;13.586;2023-11-19T16:44:50;97099.00;;;10.64;87.97
43155;BME280;34212;51.018;13.586;2023-11-19T16:49:53;97104.97;;;10.67;88.22
43155;BME280;34212;51.018;13.586;2023-11-19T16:54:55;97100.66;;;10.66;87.83
43155;BME280;34212;51.018;13.586;2023-11-19T16:59:57;97106.81;;;10.66;87.90
43155;BME280;34212;51.018;13.586;2023-11-19T17:04:59;97103.13;;;10.67;88.04
43155;BME280;34212;51.018;13.586;2023-11-19T17:10:00;97102.09;;;10.68;87.34
43155;BME280;34212;51.018;13.586;2023-11-19T17:15:04;97096.19;;;10.73;87.71
43155;BME280;34212;51.018;13.586;2023-11-19T17:20:07;97096.81;;;10.75;87.88
43155;BME280;34212;51.018;13.586;2023-11-19T17:25:10;97100.88;;;10.71;87.31
43155;BME280;34212;51.018;13.586;2023-11-19T17:30:12;97103.53;;;10.71;87.59
43155;BME280;34212;51.018;13.586;2023-11-19T17:35:14;97100.88;;;10.71;87.59
43155;BME280;34212;51.018;13.586;2023-11-19T17:40:16;97116.47;;;10.74;87.26
43155;BME280;34212;51.018;13.586;2023-11-19T17:45:18;97113.59;;;10.69;87.11
43155;BME280;34212;51.018;13.586;2023-11-19T17:50:19;97120.53;;;10.63;87.08
43155;BME280;34212;51.018;13.586;2023-11-19T17:55:25;97124.59;;;10.59;86.65
43155;BME280;34212;51.018;13.586;2023-11-19T18:00:26;97114.97;;;10.58;86.57
43155;BME280;34212;51.018;13.586;2023-11-19T18:05:29;97110.66;;;10.57;85.66
43155;BME280;34212;51.018;13.586;2023-11-19T18:10:30;97109.19;;;10.54;85.53
43155;BME280;34212;51.018;13.586;2023-11-19T18:15:32;97110.22;;;10.53;85.87
43155;BME280;34212;51.018;13.586;2023-11-19T18:20:38;97110.41;;;10.52;85.98
43155;BME280;34212;51.018;13.586;2023-11-19T18:25:39;97118.63;;;10.50;86.12
43155;BME280;34212;51.018;13.586;2023-11-19T18:30:41;97125.34;;;10.46;86.28
43155;BME280;34212;51.018;13.586;2023-11-19T18:35:42;97117.31;;;10.39;86.10
43155;BME280;34212;51.018;13.586;2023-11-19T18:40:44;97135.53;;;10.36;86.25
43155;BME280;34212;51.018;13.586;2023-11-19T18:45:47;97129.78;;;10.32;85.86
43155;BME280;34212;51.018;13.586;2023-11-19T18:50:49;97125.66;;;10.30;86.19
43155;BME280;34212;51.018;13.586;2023-11-19T18:55:53;97125.66;;;10.30;86.35
43155;BME280;34212;51.018;13.586;2023-11-19T19:00:55;97134.47;;;10.30;86.60
43155;BME280;34212;51.018;13.586;2023-11-19T19:05:57;97124.88;;;10.36;86.32
43155;BME280;34212;51.018;13.586;2023-11-19T19:10:59;97125.34;;;10.46;86.34
43155;BME280;34212;51.018;13.586;2023-11-19T19:16:06;97125.19;;;10.54;86.10
43155;BME280;34212;51.018;13.586;2023-11-19T19:21:08;97118.06;;;10.61;86.52
43155;BME280;34212;51.018;13.586;2023-11-19T19:26:11;97120.75;;;10.68;86.49
43155;BME280;34212;51.018;13.586;2023-11-19T19:31:12;97117.50;;;10.73;85.92
43155;BME280;34212;51.018;13.586;2023-11-19T19:36:19;97121.81;;;10.74;86.08
43155;BME280;34212;51.018;13.586;2023-11-19T19:41:23;97129.41;;;10.77;85.92
43155;BME280;34212;51.018;13.586;2023-11-19T19:46:25;97121.41;;;10.77;86.25
43155;BME280;34212;51.018;13.586;2023-11-19T19:51:26;97126.16;;;10.75;85.81
43155;BME280;34212;51.018;13.586;2023-11-19T19:56:28;97136.81;;;10.75;85.40
43155;BME280;34212;51.018;13.586;2023-11-19T20:01:29;97137.81;;;10.74;85.09
43155;BME280;34212;51.018;13.586;2023-11-19T20:06:38;97124.28;;;10.75;84.82
43155;BME280;34212;51.018;13.586;2023-11-19T20:11:40;97126.72;;;10.70;85.23
43155;BME280;34212;51.018;13.586;2023-11-19T20:16:44;97133.25;;;10.68;85.19
43155;BME280;34212;51.018;13.586;2023-11-19T20:21:46;97135.31;;;10.66;85.77
43155;BME280;34212;51.018;13.586;2023-11-19T20:26:48;97138.00;;;10.66;85.84
43155;BME280;34212;51.018;13.586;2023-11-19T20:31:54;97156.66;;;10.66;85.46
43155;BME280;34212;51.018;13.586;2023-11-19T20:36:56;97159.94;;;10.68;85.56
43155;BME280;34212;51.018;13.586;2023-11-19T20:41:57;97162.00;;;10.66;85.41
43155;BME280;34212;51.018;13.586;2023-11-19T20:46:59;97158.69;;;10.63;85.45
43155;BME280;34212;51.018;13.586;2023-11-19T20:52:05;97176.78;;;10.40;86.31
43155;BME280;34212;51.018;13.586;2023-11-19T20:57:07;97157.13;;;10.20;87.51
43155;BME280;34212;51.018;13.586;2023-11-19T21:02:08;97149.69;;;10.15;88.20
43155;BME280;34212;51.018;13.586;2023-11-19T21:07:10;97148.81;;;10.08;88.39
43155;BME280;34212;51.018;13.586;2023-11-19T21:12:11;97142.41;;;10.02;88.90
43155;BME280;34212;51.018;13.586;2023-11-19T21:17:13;97142.38;;;9.95;88.48
43155;BME280;34212;51.018;13.586;2023-11-19T21:22:14;97144.22;;;9.95;89.47
43155;BME280;34212;51.018;13.586;2023-11-19T21:27:16;97142.19;;;9.97;89.58
43155;BME280;34212;51.018;13.586;2023-11-19T21:32:18;97144.66;;;9.99;89.65
43155;BME280;34212;51.018;13.586;2023-11-19T21:37:19;97132.78;;;10.01;89.51
43155;BME280;34212;51.018;13.586;2023-11-19T21:42:21;97143.44;;;10.01;89.88
43155;BME280;34212;51.018;13.586;2023-11-19T21:47:22;97130.78;;;10.03;89.73
43155;BME280;34212;51.018;13.586;2023-11-19T21:52:24;97138.00;;;10.09;89.77
43155;BME280;34212;51.018;13.586;2023-11-19T21:57:25;97136.97;;;10.10;90.83
43155;BME280;34212;51.018;13.586;2023-11-19T22:02:27;97131.25;;;10.13;90.78
43155;BME280;34212;51.018;13.586;2023-11-19T22:07:29;97122.22;;;10.14;90.52
43155;BME280;34212;51.018;13.586;2023-11-19T22:12:30;97127.13;;;10.11;90.80
43155;BME280;34212;51.018;13.586;2023-11-19T22:17:32;97125.22;;;10.05;91.01
43155;BME280;34212;51.018;13.586;2023-11-19T22:22:34;97129.75;;;10.04;90.80
43155;BME280;34212;51.018;13.586;2023-11-19T22:27:36;97123.78;;;10.02;91.24
43155;BME280;34212;51.018;13.586;2023-11-19T22:32:38;97109.84;;;10.00;91.36
43155;BME280;34212;51.018;13.586;2023-11-19T22:37:40;97109.84;;;10.00;91.64
43155;BME280;34212;51.018;13.586;2023-11-19T22:42:42;97110.28;;;10.04;91.74
43155;BME280;34212;51.018;13.586;2023-11-19T22:47:44;97103.75;;;10.06;91.46
43155;BME280;34212;51.018;13.586;2023-11-19T22:52:45;97105.38;;;10.07;91.83
43155;BME280;34212;51.018;13.586;2023-11-19T22:57:47;97110.31;;;10.10;91.51
43155;BME280;34212;51.018;13.586;2023-11-19T23:02:51;97105.00;;;10.10;91.61
43155;BME280;34212;51.018;13.586;2023-11-19T23:07:54;97093.09;;;10.06;91.88
43155;BME280;34212;51.018;13.586;2023-11-19T23:12:56;97096.13;;;10.03;91.78
43155;BME280;34212;51.018;13.586;2023-11-19T23:18:01;97102.84;;;9.99;91.69
43155;BME280;34212;51.018;13.586;2023-11-19T23:23:03;97097.53;;;9.99;91.73
43155;BME280;34212;51.018;13.586;2023-11-19T23:28:05;97107.78;;;10.02;92.36
43155;BME280;34212;51.018;13.586;2023-11-19T23:33:07;97094.47;;;10.02;91.73
43155;BME280;34212;51.018;13.586;2023-11-19T23:38:09;97105.13;;;10.02;91.45
43155;BME280;34212;51.018;13.586;2023-11-19T23:43:12;97103.28;;;10.03;91.47
43155;BME280;34212;51.018;13.586;2023-11-19T23:48:14;97100.44;;;10.04;90.99
43155;BME280;34212;51.018;13.586;2023-11-19T23:53:15;97111.16;;;10.11;90.68
43155;BME280;34212;51.018;13.586;2023-11-19T23:58:17;97111.78;;;10.13;91.27
